createdAt,value
2023-04-03T00:00:18.040Z,12.07
2023-04-03T00:02:45.940Z,12.06
2023-04-03T00:05:13.833Z,12.20
2023-04-03T00:07:41.286Z,11.99
2023-04-03T00:10:09.640Z,12.06
2023-04-03T00:12:36.945Z,11.95
2023-04-03T00:15:05.473Z,11.85
2023-04-03T00:17:33.297Z,11.78
2023-04-03T00:20:01.151Z,11.83
2023-04-03T00:22:29.724Z,11.87
2023-04-03T00:24:57.309Z,11.88
2023-04-03T00:27:25.344Z,11.80
2023-04-03T00:29:53.899Z,11.89
2023-04-03T00:32:21.835Z,11.97
2023-04-03T00:34:49.470Z,12.03
2023-04-03T00:37:17.266Z,11.91
2023-04-03T00:39:45.097Z,11.88
2023-04-03T00:42:13.438Z,11.76
2023-04-03T00:44:41.184Z,11.71
2023-04-03T00:47:10.346Z,11.71
2023-04-03T00:49:39.783Z,11.58
2023-04-03T00:52:11.595Z,11.54
2023-04-03T00:54:39.806Z,11.71
2023-04-03T00:57:08.481Z,11.70
2023-04-03T00:59:39.652Z,11.65
2023-04-03T01:02:07.089Z,11.70
2023-04-03T01:04:39.559Z,11.72
2023-04-03T01:07:38.141Z,11.58
2023-04-03T01:10:08.608Z,11.60
2023-04-03T01:12:39.964Z,11.62
2023-04-03T01:15:11.194Z,11.53
2023-04-03T01:17:38.981Z,11.53
2023-04-03T01:20:12.670Z,11.54
2023-04-03T01:22:47.355Z,11.54
2023-04-03T01:25:14.821Z,11.50
2023-04-03T01:27:42.720Z,11.22
2023-04-03T01:30:11.152Z,11.17
2023-04-03T01:32:39.080Z,11.24
2023-04-03T01:35:09.317Z,11.29
2023-04-03T01:37:36.665Z,11.29
2023-04-03T01:40:04.256Z,11.24
2023-04-03T01:42:32.787Z,11.29
2023-04-03T01:45:00.286Z,11.33
2023-04-03T01:47:28.230Z,11.25
2023-04-03T01:49:55.705Z,11.18
2023-04-03T01:52:23.104Z,11.14
2023-04-03T01:54:52.639Z,11.13
2023-04-03T01:57:20.537Z,11.14
2023-04-03T01:59:49.070Z,11.07
2023-04-03T02:02:17.926Z,11.06
2023-04-03T02:04:45.464Z,11.06
2023-04-03T02:07:12.995Z,11.06
2023-04-03T02:09:40.311Z,11.05
2023-04-03T02:12:08.243Z,11.10
2023-04-03T02:14:35.656Z,11.03
2023-04-03T02:17:06.170Z,11.02
2023-04-03T02:19:36.636Z,10.89
2023-04-03T02:22:04.653Z,10.94
2023-04-03T02:24:32.710Z,10.85
2023-04-03T02:27:00.926Z,10.79
2023-04-03T02:29:28.492Z,10.81
2023-04-03T02:31:56.295Z,10.85
2023-04-03T02:34:25.553Z,10.88
2023-04-03T02:36:54.313Z,10.94
2023-04-03T02:39:22.413Z,10.91
2023-04-03T02:41:50.557Z,10.80
2023-04-03T02:44:24.748Z,10.62
2023-04-03T02:46:53.614Z,10.44
2023-04-03T02:49:21.177Z,10.41
2023-04-03T02:51:48.884Z,10.43
2023-04-03T02:54:16.581Z,10.55
2023-04-03T02:56:48.530Z,10.68
2023-04-03T02:59:16.030Z,10.57
2023-04-03T03:01:44.635Z,10.61
2023-04-03T03:04:12.096Z,10.58
2023-04-03T03:06:40.043Z,10.66
2023-04-03T03:09:07.990Z,10.65
2023-04-03T03:11:35.963Z,10.58
2023-04-03T03:14:04.775Z,10.66
2023-04-03T03:16:32.248Z,10.66
2023-04-03T03:19:00.704Z,10.66
2023-04-03T03:21:28.645Z,10.67
2023-04-03T03:23:56.510Z,10.75
2023-04-03T03:26:24.832Z,10.73
2023-04-03T03:28:52.726Z,10.75
2023-04-03T03:31:20.715Z,10.68
2023-04-03T03:33:48.173Z,10.66
2023-04-03T03:36:16.241Z,10.63
2023-04-03T03:38:43.630Z,10.73
2023-04-03T03:41:11.413Z,10.82
2023-04-03T03:43:40.282Z,10.71
2023-04-03T03:46:09.345Z,10.52
2023-04-03T03:48:37.144Z,10.33
2023-04-03T03:51:04.608Z,10.39
2023-04-03T03:53:36.259Z,10.39
2023-04-03T03:56:07.647Z,10.47
2023-04-03T03:58:37.722Z,10.56
2023-04-03T04:01:06.979Z,10.64
2023-04-03T04:03:39.745Z,10.72
2023-04-03T04:06:10.600Z,10.91
2023-04-03T04:08:39.156Z,11.04
2023-04-03T04:11:10.069Z,11.09
2023-04-03T04:13:38.879Z,11.12
2023-04-03T04:16:07.738Z,11.19
2023-04-03T04:18:35.525Z,11.23
2023-04-03T04:21:03.014Z,11.28
2023-04-03T04:23:31.358Z,11.34
2023-04-03T04:26:00.421Z,11.35
2023-04-03T04:28:31.628Z,11.45
2023-04-03T04:31:00.807Z,11.39
2023-04-03T04:33:29.409Z,11.41
2023-04-03T04:36:00.260Z,11.54
2023-04-03T04:38:28.312Z,11.50
2023-04-03T04:40:56.180Z,11.47
2023-04-03T04:43:24.314Z,11.56
2023-04-03T04:46:08.966Z,11.59
2023-04-03T04:48:42.297Z,11.58
2023-04-03T04:51:11.440Z,11.57
2023-04-03T04:53:39.650Z,11.56
2023-04-03T04:56:08.562Z,11.62
2023-04-03T04:58:38.601Z,11.69
2023-04-03T05:01:08.424Z,11.60
2023-04-03T05:03:40.072Z,11.73
2023-04-03T05:06:08.364Z,11.68
2023-04-03T05:08:36.874Z,11.63
2023-04-03T05:11:05.584Z,11.62
2023-04-03T05:13:33.307Z,11.74
2023-04-03T05:16:01.431Z,11.78
2023-04-03T05:18:29.481Z,11.75
2023-04-03T05:20:59.794Z,11.76
2023-04-03T05:23:27.818Z,11.91
2023-04-03T05:25:57.186Z,11.94
2023-04-03T05:28:25.533Z,11.94
2023-04-03T05:30:55.991Z,11.95
2023-04-03T05:33:24.272Z,12.14
2023-04-03T05:35:55.525Z,12.09
2023-04-03T05:38:27.989Z,12.14
2023-04-03T05:40:56.405Z,12.21
2023-04-03T05:43:24.946Z,12.30
2023-04-03T05:45:53.416Z,12.26
2023-04-03T05:48:22.822Z,12.53
2023-04-03T05:50:50.947Z,12.49
2023-04-03T05:53:27.297Z,12.70
2023-04-03T05:55:56.291Z,12.95
2023-04-03T05:58:24.911Z,12.97
2023-04-03T06:00:53.971Z,13.17
2023-04-03T06:03:22.036Z,12.96
2023-04-03T06:05:49.779Z,13.12
2023-04-03T06:08:17.202Z,13.01
2023-04-03T06:10:45.906Z,13.19
2023-04-03T06:13:13.616Z,13.21
2023-04-03T06:15:41.541Z,13.29
2023-04-03T06:18:10.171Z,13.32
2023-04-03T06:20:38.397Z,13.34
2023-04-03T06:23:08.540Z,13.63
2023-04-03T06:25:36.139Z,13.60
2023-04-03T06:28:03.430Z,13.63
2023-04-03T06:30:31.306Z,13.64
2023-04-03T06:33:00.496Z,13.53
2023-04-03T06:35:29.685Z,13.78
2023-04-03T06:37:57.233Z,13.91
2023-04-03T06:40:26.132Z,13.86
2023-04-03T06:42:54.409Z,13.79
2023-04-03T06:45:22.774Z,13.67
2023-04-03T06:47:50.417Z,13.57
2023-04-03T06:50:17.955Z,13.66
2023-04-03T06:52:45.936Z,13.77
2023-04-03T06:55:13.889Z,13.78
2023-04-03T06:57:41.233Z,13.81
2023-04-03T07:00:10.222Z,13.74
2023-04-03T07:02:37.704Z,13.80
2023-04-03T07:05:07.138Z,13.72
2023-04-03T07:07:35.521Z,13.74
2023-04-03T07:10:03.872Z,13.79
2023-04-03T07:12:31.776Z,13.79
2023-04-03T07:14:59.405Z,13.83
2023-04-03T07:17:28.002Z,13.99
2023-04-03T07:19:55.673Z,13.81
2023-04-03T07:22:23.511Z,13.71
2023-04-03T07:24:50.795Z,14.11
2023-04-03T07:27:18.917Z,14.31
2023-04-03T07:29:46.525Z,14.16
2023-04-03T07:32:14.483Z,14.35
2023-04-03T07:34:42.747Z,14.47
2023-04-03T07:37:10.405Z,14.25
2023-04-03T07:39:38.181Z,14.30
2023-04-03T07:42:06.168Z,14.62
2023-04-03T07:44:33.661Z,14.35
2023-04-03T07:47:01.797Z,14.43
2023-04-03T07:49:29.765Z,14.43
2023-04-03T07:51:57.512Z,14.63
2023-04-03T07:54:24.907Z,14.39
2023-04-03T07:56:52.745Z,14.96
2023-04-03T07:59:20.641Z,14.84
2023-04-03T08:01:48.299Z,14.91
2023-04-03T08:04:16.294Z,15.05
2023-04-03T08:06:46.971Z,15.16
2023-04-03T08:09:17.816Z,15.03
2023-04-03T08:11:46.159Z,15.07
2023-04-03T08:14:18.037Z,15.13
2023-04-03T08:16:47.152Z,15.17
2023-04-03T08:19:25.368Z,15.23
2023-04-03T08:21:54.791Z,15.41
2023-04-03T08:24:22.507Z,14.99
2023-04-03T08:26:51.272Z,15.25
2023-04-03T08:29:18.694Z,15.28
2023-04-03T08:31:46.487Z,15.27
2023-04-03T08:34:14.232Z,15.55
2023-04-03T08:36:42.831Z,15.67
2023-04-03T08:39:11.584Z,15.62
2023-04-03T08:41:40.769Z,15.71
2023-04-03T08:44:38.453Z,15.73
2023-04-03T08:47:26.337Z,16.02
2023-04-03T08:49:58.938Z,15.88
2023-04-03T08:52:39.361Z,15.99
2023-04-03T08:55:26.220Z,16.17
2023-04-03T08:58:00.286Z,16.08
2023-04-03T09:00:29.982Z,16.18
2023-04-03T09:02:58.292Z,16.37
2023-04-03T09:05:26.778Z,16.26
2023-04-03T09:07:58.954Z,16.54
2023-04-03T09:10:29.462Z,16.80
2023-04-03T09:13:08.276Z,16.97
2023-04-03T09:15:39.346Z,16.88
2023-04-03T09:18:16.557Z,17.31
2023-04-03T09:21:02.789Z,17.10
2023-04-03T09:23:34.377Z,17.69
2023-04-03T09:26:15.650Z,17.80
2023-04-03T09:28:50.299Z,17.82
2023-04-03T09:31:27.350Z,18.57
2023-04-03T09:34:01.786Z,19.49
2023-04-03T09:36:41.019Z,20.18
2023-04-03T09:39:13.850Z,20.34
2023-04-03T09:41:42.020Z,19.95
2023-04-03T09:44:21.674Z,18.55
2023-04-03T09:46:50.444Z,17.98
2023-04-03T09:49:18.982Z,18.90
2023-04-03T09:51:47.017Z,19.17
2023-04-03T09:54:34.682Z,18.28
2023-04-03T09:57:08.926Z,17.97
2023-04-03T09:59:39.616Z,19.00
2023-04-03T10:02:07.459Z,20.27
2023-04-03T10:04:39.276Z,21.36
2023-04-03T10:07:27.939Z,21.46
2023-04-03T10:09:57.515Z,20.07
2023-04-03T10:12:25.054Z,18.86
2023-04-03T10:14:56.577Z,19.67
2023-04-03T10:17:27.396Z,20.04
2023-04-03T10:19:58.566Z,20.66
2023-04-03T10:22:33.544Z,20.24
2023-04-03T10:25:05.348Z,22.09
2023-04-03T10:27:51.495Z,20.38
2023-04-03T10:30:18.896Z,21.61
2023-04-03T10:32:55.004Z,21.92
2023-04-03T10:35:40.716Z,19.67
2023-04-03T10:38:14.363Z,20.10
2023-04-03T10:40:45.512Z,19.56
2023-04-03T10:43:23.042Z,19.19
2023-04-03T10:45:56.597Z,20.16
2023-04-03T10:48:24.893Z,18.44
2023-04-03T10:51:11.492Z,19.73
2023-04-03T10:53:48.927Z,21.54
2023-04-03T10:56:23.088Z,21.69
2023-04-03T10:58:55.705Z,22.83
2023-04-03T11:01:26.094Z,22.61
2023-04-03T11:03:56.863Z,21.77
2023-04-03T11:06:27.580Z,19.97
2023-04-03T11:08:58.967Z,20.42
2023-04-03T11:11:31.938Z,21.02
2023-04-03T11:14:04.129Z,20.95
2023-04-03T11:16:40.627Z,20.93
2023-04-03T11:19:31.179Z,23.80
2023-04-03T11:22:03.119Z,24.22
2023-04-03T11:24:32.510Z,21.77
2023-04-03T11:27:00.888Z,22.12
2023-04-03T11:29:39.059Z,21.96
2023-04-03T11:32:22.235Z,23.74
2023-04-03T11:34:51.825Z,23.79
2023-04-03T11:37:36.789Z,24.33
2023-04-03T11:40:26.447Z,23.39
2023-04-03T11:42:56.163Z,23.27
2023-04-03T11:45:24.551Z,23.29
2023-04-03T11:47:52.439Z,24.44
2023-04-03T11:50:33.030Z,24.07
2023-04-03T11:53:09.595Z,26.06
2023-04-03T11:55:43.536Z,25.83
2023-04-03T11:58:19.077Z,23.62
2023-04-03T12:00:52.651Z,24.31
2023-04-03T12:03:27.668Z,24.02
2023-04-03T12:05:58.600Z,24.37
2023-04-03T12:08:45.616Z,26.11
2023-04-03T12:11:13.552Z,26.40
2023-04-03T12:13:41.509Z,24.96
2023-04-03T12:16:29.324Z,25.67
2023-04-03T12:18:57.008Z,25.32
2023-04-03T12:21:44.716Z,22.57
2023-04-03T12:24:18.718Z,21.32
2023-04-03T12:26:51.951Z,23.34
2023-04-03T12:29:29.823Z,23.74
2023-04-03T12:32:16.305Z,22.55
2023-04-03T12:34:44.186Z,22.26
2023-04-03T12:37:29.355Z,21.98
2023-04-03T12:40:01.112Z,21.41
2023-04-03T12:42:36.974Z,22.50
2023-04-03T12:45:33.634Z,23.54
2023-04-03T12:48:03.739Z,24.28
2023-04-03T12:50:34.971Z,22.38
2023-04-03T12:53:07.606Z,21.31
2023-04-03T12:55:35.857Z,22.00
2023-04-03T12:58:18.129Z,22.74
2023-04-03T13:00:45.722Z,22.62
2023-04-03T13:03:31.893Z,22.32
2023-04-03T13:06:04.859Z,25.25
2023-04-03T13:08:33.426Z,26.16
2023-04-03T13:11:05.073Z,25.74
2023-04-03T13:13:33.329Z,23.78
2023-04-03T13:16:00.892Z,21.94
2023-04-03T13:18:34.126Z,21.74
2023-04-03T13:21:27.752Z,22.23
2023-04-03T13:24:11.441Z,21.18
2023-04-03T13:26:43.188Z,20.91
2023-04-03T13:29:29.930Z,21.00
2023-04-03T13:32:00.209Z,20.74
2023-04-03T13:34:37.607Z,20.61
2023-04-03T13:37:06.412Z,19.46
2023-04-03T13:39:38.625Z,19.49
2023-04-03T13:42:24.232Z,19.15
2023-04-03T13:45:07.484Z,18.51
2023-04-03T13:47:42.711Z,18.40
2023-04-03T13:50:16.280Z,18.44
2023-04-03T13:52:46.530Z,18.57
2023-04-03T13:55:25.204Z,18.68
2023-04-03T13:58:01.140Z,18.77
2023-04-03T14:00:31.632Z,17.93
2023-04-03T14:02:59.387Z,18.26
2023-04-03T14:05:27.659Z,18.15
2023-04-03T14:07:56.247Z,17.89
2023-04-03T14:10:24.324Z,17.56
2023-04-03T14:12:52.181Z,18.07
2023-04-03T14:15:28.448Z,17.78
2023-04-03T14:17:56.499Z,17.92
2023-04-03T14:20:25.697Z,18.48
2023-04-03T14:22:54.725Z,18.12
2023-04-03T14:25:24.861Z,18.03
2023-04-03T14:27:54.800Z,18.38
2023-04-03T14:30:27.983Z,18.28
2023-04-03T14:32:56.635Z,17.92
2023-04-03T14:35:24.745Z,17.59
2023-04-03T14:37:52.601Z,18.15
2023-04-03T14:40:24.546Z,18.51
2023-04-03T14:42:52.326Z,17.71
2023-04-03T14:45:19.739Z,17.78
2023-04-03T14:47:49.520Z,17.81
2023-04-03T14:50:18.772Z,18.19
2023-04-03T14:52:47.275Z,18.30
2023-04-03T14:55:18.278Z,18.26
2023-04-03T14:57:46.375Z,17.64
2023-04-03T15:00:16.040Z,17.72
2023-04-03T15:02:43.730Z,18.04
2023-04-03T15:05:12.328Z,18.60
2023-04-03T15:07:44.236Z,18.62
2023-04-03T15:10:22.482Z,17.91
2023-04-03T15:12:49.970Z,18.23
2023-04-03T15:15:19.547Z,18.18
2023-04-03T15:17:49.205Z,18.01
2023-04-03T15:20:18.637Z,17.89
2023-04-03T15:22:46.544Z,17.68
2023-04-03T15:25:14.562Z,18.14
2023-04-03T15:27:42.509Z,18.12
2023-04-03T15:30:15.417Z,17.86
2023-04-03T15:32:43.775Z,17.96
2023-04-03T15:35:11.455Z,17.76
2023-04-03T15:37:39.349Z,18.05
2023-04-03T15:40:07.084Z,17.94
2023-04-03T15:42:35.870Z,18.04
2023-04-03T15:45:03.431Z,18.79
2023-04-03T15:47:31.732Z,19.90
2023-04-03T15:49:59.655Z,19.97
2023-04-03T15:52:26.989Z,19.40
2023-04-03T15:54:54.771Z,19.28
2023-04-03T15:57:27.155Z,19.85
2023-04-03T15:59:55.188Z,20.41
2023-04-03T16:02:23.451Z,19.65
2023-04-03T16:04:51.291Z,19.21
2023-04-03T16:07:19.228Z,18.87
2023-04-03T16:09:47.692Z,18.02
2023-04-03T16:12:15.573Z,17.89
2023-04-03T16:14:43.486Z,17.57
2023-04-03T16:17:11.295Z,17.47
2023-04-03T16:19:39.530Z,17.11
2023-04-03T16:22:07.355Z,17.29
2023-04-03T16:24:36.684Z,16.83
2023-04-03T16:27:04.692Z,16.23
2023-04-03T16:29:32.526Z,16.46
2023-04-03T16:32:00.444Z,16.13
2023-04-03T16:34:28.297Z,16.04
2023-04-03T16:36:56.664Z,16.04
2023-04-03T16:39:25.022Z,15.84
2023-04-03T16:41:52.759Z,15.89
2023-04-03T16:44:20.201Z,15.85
2023-04-03T16:46:48.508Z,15.90
2023-04-03T16:49:17.053Z,15.99
2023-04-03T16:51:45.234Z,15.79
2023-04-03T16:54:14.552Z,15.54
2023-04-03T16:56:42.445Z,15.56
2023-04-03T16:59:09.803Z,15.53
2023-04-03T17:01:37.681Z,15.45
2023-04-03T17:04:05.353Z,15.34
2023-04-03T17:06:32.838Z,15.46
2023-04-03T17:09:01.365Z,15.37
2023-04-03T17:11:29.522Z,15.36
2023-04-03T17:13:56.941Z,15.39
2023-04-03T17:16:24.862Z,15.23
2023-04-03T17:18:53.138Z,15.13
2023-04-03T17:21:21.386Z,14.90
2023-04-03T17:23:53.664Z,15.01
2023-04-03T17:26:22.393Z,14.83
2023-04-03T17:28:49.754Z,14.56
2023-04-03T17:31:17.294Z,14.63
2023-04-03T17:33:45.327Z,14.62
2023-04-03T17:36:12.742Z,14.50
2023-04-03T17:38:41.436Z,14.67
2023-04-03T17:41:09.848Z,14.82
2023-04-03T17:43:38.206Z,14.68
2023-04-03T17:46:09.060Z,14.79
2023-04-03T17:48:37.861Z,14.61
2023-04-03T17:51:11.121Z,14.55
2023-04-03T17:53:39.095Z,14.74
2023-04-03T17:56:11.371Z,14.54
2023-04-03T17:58:39.286Z,14.69
2023-04-03T18:01:11.077Z,14.71
2023-04-03T18:03:39.364Z,14.23
2023-04-03T18:06:08.088Z,13.98
2023-04-03T18:08:40.074Z,13.94
2023-04-03T18:11:08.481Z,13.85
2023-04-03T18:13:37.792Z,13.85
2023-04-03T18:16:07.889Z,13.75
2023-04-03T18:18:36.116Z,13.63
2023-04-03T18:21:03.906Z,13.82
2023-04-03T18:23:32.806Z,13.62
2023-04-03T18:26:02.655Z,13.47
2023-04-03T18:28:32.353Z,13.60
2023-04-03T18:31:00.923Z,13.29
2023-04-03T18:33:28.949Z,13.32
2023-04-03T18:35:56.288Z,13.36
2023-04-03T18:38:24.274Z,13.23
2023-04-03T18:40:53.086Z,13.34
2023-04-03T18:43:21.107Z,13.08
2023-04-03T18:45:49.017Z,12.95
2023-04-03T18:48:16.349Z,13.00
2023-04-03T18:50:44.017Z,12.88
2023-04-03T18:53:13.023Z,12.91
2023-04-03T18:55:40.631Z,12.79
2023-04-03T18:58:08.964Z,12.60
2023-04-03T19:00:38.656Z,12.69
2023-04-03T19:03:06.651Z,12.69
2023-04-03T19:05:34.079Z,12.50
2023-04-03T19:08:01.929Z,12.38
2023-04-03T19:10:30.916Z,12.03
2023-04-03T19:12:59.297Z,12.00
2023-04-03T19:15:27.262Z,11.59
2023-04-03T19:17:54.630Z,11.40
2023-04-03T19:20:22.597Z,11.23
2023-04-03T19:22:50.444Z,11.19
2023-04-03T19:25:20.021Z,11.03
2023-04-03T19:27:47.923Z,11.13
2023-04-03T19:30:16.079Z,11.08
2023-04-03T19:32:43.903Z,11.17
2023-04-03T19:35:12.191Z,11.00
2023-04-03T19:37:40.213Z,11.17
2023-04-03T19:40:08.058Z,11.04
2023-04-03T19:42:40.227Z,10.99
2023-04-03T19:45:08.929Z,11.02
2023-04-03T19:47:37.587Z,11.21
2023-04-03T19:50:06.192Z,11.42
2023-04-03T19:52:33.975Z,11.58
2023-04-03T19:55:01.693Z,11.68
2023-04-03T19:57:29.555Z,11.89
2023-04-03T19:59:57.203Z,11.66
2023-04-03T20:02:24.569Z,11.36
2023-04-03T20:04:51.985Z,11.68
2023-04-03T20:07:19.736Z,11.54
2023-04-03T20:09:47.987Z,11.77
2023-04-03T20:12:15.850Z,11.68
2023-04-03T20:14:43.809Z,11.76
2023-04-03T20:17:11.366Z,11.86
2023-04-03T20:19:38.938Z,11.82
2023-04-03T20:22:07.119Z,11.74
2023-04-03T20:24:34.953Z,11.79
2023-04-03T20:27:03.022Z,11.54
2023-04-03T20:29:31.138Z,11.53
2023-04-03T20:31:59.173Z,11.40
2023-04-03T20:34:27.062Z,11.48
2023-04-03T20:36:55.088Z,11.63
2023-04-03T20:39:24.825Z,11.62
2023-04-03T20:41:52.388Z,11.52
2023-04-03T20:44:22.005Z,11.54
2023-04-03T20:46:53.549Z,11.64
2023-04-03T20:49:22.980Z,11.76
2023-04-03T20:51:51.755Z,11.84
2023-04-03T20:54:19.795Z,11.81
2023-04-03T20:56:50.137Z,11.67
2023-04-03T20:59:18.625Z,11.73
2023-04-03T21:01:47.699Z,11.78
2023-04-03T21:04:18.418Z,11.67
2023-04-03T21:07:05.746Z,11.53
2023-04-03T21:09:52.845Z,11.56
2023-04-03T21:12:40.100Z,11.62
2023-04-03T21:15:27.221Z,11.40
2023-04-03T21:18:03.003Z,11.46
2023-04-03T21:20:31.535Z,11.61
2023-04-03T21:22:59.017Z,11.47
2023-04-03T21:25:27.797Z,11.53
2023-04-03T21:27:55.656Z,11.43
2023-04-03T21:30:23.125Z,11.59
2023-04-03T21:32:50.569Z,11.59
2023-04-03T21:35:19.070Z,11.38
2023-04-03T21:37:46.951Z,11.46
2023-04-03T21:40:14.820Z,11.53
2023-04-03T21:42:42.207Z,11.56
2023-04-03T21:45:10.700Z,11.65
2023-04-03T21:47:38.547Z,11.55
2023-04-03T21:50:06.797Z,11.58
2023-04-03T21:52:34.525Z,11.57
2023-04-03T21:55:02.836Z,11.59
2023-04-03T21:57:31.309Z,11.38
2023-04-03T21:59:58.787Z,11.46
2023-04-03T22:02:31.546Z,11.46
2023-04-03T22:04:59.313Z,11.36
2023-04-03T22:07:27.509Z,11.27
2023-04-03T22:09:54.774Z,11.19
2023-04-03T22:12:22.067Z,11.04
2023-04-03T22:14:49.982Z,11.04
2023-04-03T22:17:18.061Z,11.15
2023-04-03T22:19:46.728Z,10.92
2023-04-03T22:22:14.155Z,10.81
2023-04-03T22:24:41.819Z,10.88
2023-04-03T22:27:09.222Z,10.84
2023-04-03T22:29:37.000Z,10.69
2023-04-03T22:32:04.442Z,10.84
2023-04-03T22:34:33.310Z,10.87
2023-04-03T22:37:01.221Z,10.82
2023-04-03T22:39:29.021Z,10.81
2023-04-03T22:41:56.983Z,10.83
2023-04-03T22:44:27.543Z,10.83
2023-04-03T22:46:57.638Z,10.66
2023-04-03T22:49:24.976Z,10.58
2023-04-03T22:51:53.499Z,10.55
2023-04-03T22:54:21.302Z,10.67
2023-04-03T22:56:49.215Z,10.66
2023-04-03T22:59:16.647Z,10.66
2023-04-03T23:01:44.398Z,10.55
2023-04-03T23:04:12.386Z,10.63
2023-04-03T23:06:40.146Z,10.66
2023-04-03T23:09:08.706Z,10.58
2023-04-03T23:11:37.253Z,10.61
2023-04-03T23:14:04.563Z,10.60
2023-04-03T23:16:32.894Z,10.61
2023-04-03T23:19:01.192Z,10.42
2023-04-03T23:21:29.081Z,10.47
2023-04-03T23:23:56.961Z,10.54
2023-04-03T23:26:25.562Z,10.32
2023-04-03T23:28:52.876Z,10.24
2023-04-03T23:31:20.321Z,10.31
2023-04-03T23:33:47.779Z,10.28
2023-04-03T23:36:18.352Z,10.34
2023-04-03T23:38:45.772Z,10.29
2023-04-03T23:41:13.220Z,10.11
2023-04-03T23:43:42.339Z,10.07
2023-04-03T23:46:11.047Z,10.08
2023-04-03T23:48:39.261Z,9.97
2023-04-03T23:51:07.073Z,9.93
2023-04-03T23:53:34.882Z,9.87
2023-04-03T23:56:02.396Z,9.70
2023-04-03T23:58:29.679Z,9.68
